sensor_id;sensor_type;location;lat;lon;timestamp;temperature;humidity
16785;DHT22;8509;52.178;5.404;2024-03-17T00:00:24;5.50;99.90
16785;DHT22;8509;52.178;5.404;2024-03-17T00:02:50;5.50;99.90
16785;DHT22;8509;52.178;5.404;2024-03-17T00:05:15;5.50;99.90
16785;DHT22;8509;52.178;5.404;2024-03-17T00:07:44;5.50;99.90
16785;DHT22;8509;52.178;5.404;2024-03-17T00:10:09;5.50;99.90
16785;DHT22;8509;52.178;5.404;2024-03-17T00:12:36;5.50;99.90
16785;DHT22;8509;52.178;5.404;2024-03-17T00:15:03;5.50;99.90
16785;DHT22;8509;52.178;5.404;2024-03-17T00:17:29;5.50;99.90
16785;DHT22;8509;52.178;5.404;2024-03-17T00:19:55;5.40;99.90
16785;DHT22;8509;52.178;5.404;2024-03-17T00:22:21;5.50;99.90
16785;DHT22;8509;52.178;5.404;2024-03-17T00:24:46;5.40;99.90
16785;DHT22;8509;52.178;5.404;2024-03-17T00:27:12;5.50;99.90
16785;DHT22;8509;52.178;5.404;2024-03-17T00:29:39;5.40;99.90
16785;DHT22;8509;52.178;5.404;2024-03-17T00:32:06;5.30;99.90
16785;DHT22;8509;52.178;5.404;2024-03-17T00:34:32;5.30;99.90
16785;DHT22;8509;52.178;5.404;2024-03-17T00:36:57;5.30;99.90
16785;DHT22;8509;52.178;5.404;2024-03-17T00:39:24;5.40;99.90
16785;DHT22;8509;52.178;5.404;2024-03-17T00:41:51;5.40;99.90
16785;DHT22;8509;52.178;5.404;2024-03-17T00:44:16;5.50;99.90
16785;DHT22;8509;52.178;5.404;2024-03-17T00:46:42;5.50;99.90
16785;DHT22;8509;52.178;5.404;2024-03-17T00:49:09;5.40;99.90
16785;DHT22;8509;52.178;5.404;2024-03-17T00:51:36;5.40;99.90
16785;DHT22;8509;52.178;5.404;2024-03-17T00:54:02;5.50;99.90
16785;DHT22;8509;52.178;5.404;2024-03-17T00:56:27;5.40;99.90
16785;DHT22;8509;52.178;5.404;2024-03-17T00:58:53;5.40;99.90
16785;DHT22;8509;52.178;5.404;2024-03-17T01:01:19;5.40;99.90
16785;DHT22;8509;52.178;5.404;2024-03-17T01:03:45;5.60;99.90
16785;DHT22;8509;52.178;5.404;2024-03-17T01:06:11;5.40;99.90
16785;DHT22;8509;52.178;5.404;2024-03-17T01:08:37;5.50;99.90
16785;DHT22;8509;52.178;5.404;2024-03-17T01:11:03;5.70;99.90
16785;DHT22;8509;52.178;5.404;2024-03-17T01:13:29;5.60;99.90
16785;DHT22;8509;52.178;5.404;2024-03-17T01:15:54;5.60;99.90
16785;DHT22;8509;52.178;5.404;2024-03-17T01:18:20;5.60;99.90
16785;DHT22;8509;52.178;5.404;2024-03-17T01:20:46;5.60;99.90
16785;DHT22;8509;52.178;5.404;2024-03-17T01:23:12;5.70;99.90
16785;DHT22;8509;52.178;5.404;2024-03-17T01:25:39;5.70;99.90
16785;DHT22;8509;52.178;5.404;2024-03-17T01:28:04;5.60;99.90
16785;DHT22;8509;52.178;5.404;2024-03-17T01:30:33;5.60;99.90
16785;DHT22;8509;52.178;5.404;2024-03-17T01:33:00;5.60;99.90
16785;DHT22;8509;52.178;5.404;2024-03-17T01:35:26;5.60;99.90
16785;DHT22;8509;52.178;5.404;2024-03-17T01:37:52;5.60;99.90
16785;DHT22;8509;52.178;5.404;2024-03-17T01:40:18;5.60;99.90
16785;DHT22;8509;52.178;5.404;2024-03-17T01:42:44;5.50;99.90
16785;DHT22;8509;52.178;5.404;2024-03-17T01:45:26;5.70;99.90
16785;DHT22;8509;52.178;5.404;2024-03-17T01:47:54;5.60;99.90
16785;DHT22;8509;52.178;5.404;2024-03-17T01:50:20;5.60;99.90
16785;DHT22;8509;52.178;5.404;2024-03-17T01:52:52;5.70;99.90
16785;DHT22;8509;52.178;5.404;2024-03-17T01:55:19;5.60;99.90
16785;DHT22;8509;52.178;5.404;2024-03-17T01:57:45;5.60;99.90
16785;DHT22;8509;52.178;5.404;2024-03-17T02:00:11;5.60;99.90
16785;DHT22;8509;52.178;5.404;2024-03-17T02:02:38;5.60;99.90
16785;DHT22;8509;52.178;5.404;2024-03-17T02:05:04;5.60;99.90
16785;DHT22;8509;52.178;5.404;2024-03-17T02:07:29;5.60;99.90
16785;DHT22;8509;52.178;5.404;2024-03-17T02:09:58;5.60;99.90
16785;DHT22;8509;52.178;5.404;2024-03-17T02:12:25;5.70;99.90
16785;DHT22;8509;52.178;5.404;2024-03-17T02:14:50;5.70;99.90
16785;DHT22;8509;52.178;5.404;2024-03-17T02:17:16;5.70;99.90
16785;DHT22;8509;52.178;5.404;2024-03-17T02:19:42;5.70;99.90
16785;DHT22;8509;52.178;5.404;2024-03-17T02:22:14;5.70;99.90
16785;DHT22;8509;52.178;5.404;2024-03-17T02:24:40;5.70;99.90
16785;DHT22;8509;52.178;5.404;2024-03-17T02:27:06;5.80;99.90
16785;DHT22;8509;52.178;5.404;2024-03-17T02:29:32;5.80;99.90
16785;DHT22;8509;52.178;5.404;2024-03-17T02:31:58;5.80;99.90
16785;DHT22;8509;52.178;5.404;2024-03-17T02:34:23;5.90;99.90
16785;DHT22;8509;52.178;5.404;2024-03-17T02:36:49;5.90;99.90
16785;DHT22;8509;52.178;5.404;2024-03-17T02:39:18;6.00;99.90
16785;DHT22;8509;52.178;5.404;2024-03-17T02:42:07;6.00;99.90
16785;DHT22;8509;52.178;5.404;2024-03-17T02:44:38;6.00;99.90
16785;DHT22;8509;52.178;5.404;2024-03-17T02:47:05;5.90;99.90
16785;DHT22;8509;52.178;5.404;2024-03-17T02:49:34;5.90;99.90
16785;DHT22;8509;52.178;5.404;2024-03-17T02:52:06;5.90;99.90
16785;DHT22;8509;52.178;5.404;2024-03-17T02:54:32;6.00;99.90
16785;DHT22;8509;52.178;5.404;2024-03-17T02:56:58;6.00;99.90
16785;DHT22;8509;52.178;5.404;2024-03-17T02:59:25;6.00;99.90
16785;DHT22;8509;52.178;5.404;2024-03-17T03:01:52;6.10;99.90
16785;DHT22;8509;52.178;5.404;2024-03-17T03:04:18;6.00;99.90
16785;DHT22;8509;52.178;5.404;2024-03-17T03:06:44;6.10;99.90
16785;DHT22;8509;52.178;5.404;2024-03-17T03:09:09;6.10;99.90
16785;DHT22;8509;52.178;5.404;2024-03-17T03:11:40;6.10;99.90
16785;DHT22;8509;52.178;5.404;2024-03-17T03:14:06;6.30;99.90
16785;DHT22;8509;52.178;5.404;2024-03-17T03:16:32;6.20;99.90
16785;DHT22;8509;52.178;5.404;2024-03-17T03:18:59;6.20;99.90
16785;DHT22;8509;52.178;5.404;2024-03-17T03:21:25;6.30;99.90
16785;DHT22;8509;52.178;5.404;2024-03-17T03:23:51;6.30;99.90
16785;DHT22;8509;52.178;5.404;2024-03-17T03:26:17;6.30;99.90
16785;DHT22;8509;52.178;5.404;2024-03-17T03:28:43;6.40;99.90
16785;DHT22;8509;52.178;5.404;2024-03-17T03:31:12;6.40;99.90
16785;DHT22;8509;52.178;5.404;2024-03-17T03:33:40;6.40;99.90
16785;DHT22;8509;52.178;5.404;2024-03-17T03:36:14;6.40;99.90
16785;DHT22;8509;52.178;5.404;2024-03-17T03:38:40;6.40;99.90
16785;DHT22;8509;52.178;5.404;2024-03-17T03:41:10;6.50;99.90
16785;DHT22;8509;52.178;5.404;2024-03-17T03:43:37;6.50;99.90
16785;DHT22;8509;52.178;5.404;2024-03-17T03:46:04;6.60;99.90
16785;DHT22;8509;52.178;5.404;2024-03-17T03:48:30;6.50;99.90
16785;DHT22;8509;52.178;5.404;2024-03-17T03:50:56;6.50;99.90
16785;DHT22;8509;52.178;5.404;2024-03-17T03:53:22;6.50;99.90
16785;DHT22;8509;52.178;5.404;2024-03-17T03:55:48;6.50;99.90
16785;DHT22;8509;52.178;5.404;2024-03-17T03:58:15;6.60;99.90
16785;DHT22;8509;52.178;5.404;2024-03-17T04:00:41;6.60;99.90
16785;DHT22;8509;52.178;5.404;2024-03-17T04:03:07;6.60;99.90
16785;DHT22;8509;52.178;5.404;2024-03-17T04:05:33;6.60;99.90
16785;DHT22;8509;52.178;5.404;2024-03-17T04:08:00;6.60;99.90
16785;DHT22;8509;52.178;5.404;2024-03-17T04:10:26;6.60;99.90
16785;DHT22;8509;52.178;5.404;2024-03-17T04:12:52;6.60;99.90
16785;DHT22;8509;52.178;5.404;2024-03-17T04:15:18;6.50;99.90
16785;DHT22;8509;52.178;5.404;2024-03-17T04:17:44;6.50;99.90
16785;DHT22;8509;52.178;5.404;2024-03-17T04:20:10;6.50;99.90
16785;DHT22;8509;52.178;5.404;2024-03-17T04:22:40;6.50;99.90
16785;DHT22;8509;52.178;5.404;2024-03-17T04:25:06;6.40;99.90
16785;DHT22;8509;52.178;5.404;2024-03-17T04:27:32;6.40;99.90
16785;DHT22;8509;52.178;5.404;2024-03-17T04:29:59;6.40;99.90
16785;DHT22;8509;52.178;5.404;2024-03-17T04:32:26;6.40;99.90
16785;DHT22;8509;52.178;5.404;2024-03-17T04:34:52;6.50;99.90
16785;DHT22;8509;52.178;5.404;2024-03-17T04:37:18;6.40;99.90
16785;DHT22;8509;52.178;5.404;2024-03-17T04:39:45;6.30;99.90
16785;DHT22;8509;52.178;5.404;2024-03-17T04:42:13;6.40;99.90
16785;DHT22;8509;52.178;5.404;2024-03-17T04:44:45;6.40;99.90
16785;DHT22;8509;52.178;5.404;2024-03-17T04:47:11;6.30;99.90
16785;DHT22;8509;52.178;5.404;2024-03-17T04:49:42;6.30;99.90
16785;DHT22;8509;52.178;5.404;2024-03-17T04:52:09;6.30;99.90
16785;DHT22;8509;52.178;5.404;2024-03-17T04:54:36;6.30;99.90
16785;DHT22;8509;52.178;5.404;2024-03-17T04:57:02;6.30;99.90
16785;DHT22;8509;52.178;5.404;2024-03-17T04:59:28;6.30;99.90
16785;DHT22;8509;52.178;5.404;2024-03-17T05:01:54;6.40;99.90
16785;DHT22;8509;52.178;5.404;2024-03-17T05:04:20;6.60;99.90
16785;DHT22;8509;52.178;5.404;2024-03-17T05:06:48;6.40;99.90
16785;DHT22;8509;52.178;5.404;2024-03-17T05:09:18;6.40;99.90
16785;DHT22;8509;52.178;5.404;2024-03-17T05:11:44;6.40;99.90
16785;DHT22;8509;52.178;5.404;2024-03-17T05:14:11;6.50;99.90
16785;DHT22;8509;52.178;5.404;2024-03-17T05:16:36;6.60;99.90
16785;DHT22;8509;52.178;5.404;2024-03-17T05:19:02;6.60;99.90
16785;DHT22;8509;52.178;5.404;2024-03-17T05:21:29;6.60;99.90
16785;DHT22;8509;52.178;5.404;2024-03-17T05:23:58;6.50;99.90
16785;DHT22;8509;52.178;5.404;2024-03-17T05:26:24;6.60;99.90
16785;DHT22;8509;52.178;5.404;2024-03-17T05:28:50;6.60;99.90
16785;DHT22;8509;52.178;5.404;2024-03-17T05:31:16;6.60;99.90
16785;DHT22;8509;52.178;5.404;2024-03-17T05:33:44;6.50;99.90
16785;DHT22;8509;52.178;5.404;2024-03-17T05:36:10;6.60;99.90
16785;DHT22;8509;52.178;5.404;2024-03-17T05:38:35;6.50;99.90
16785;DHT22;8509;52.178;5.404;2024-03-17T05:41:03;6.60;99.90
16785;DHT22;8509;52.178;5.404;2024-03-17T05:43:31;6.60;99.90
16785;DHT22;8509;52.178;5.404;2024-03-17T05:46:08;6.60;99.90
16785;DHT22;8509;52.178;5.404;2024-03-17T05:48:34;6.70;99.90
16785;DHT22;8509;52.178;5.404;2024-03-17T05:51:09;6.60;99.90
16785;DHT22;8509;52.178;5.404;2024-03-17T05:53:36;6.70;99.90
16785;DHT22;8509;52.178;5.404;2024-03-17T05:56:03;6.80;99.90
16785;DHT22;8509;52.178;5.404;2024-03-17T05:58:29;6.70;99.90
16785;DHT22;8509;52.178;5.404;2024-03-17T06:00:55;6.70;99.90
16785;DHT22;8509;52.178;5.404;2024-03-17T06:03:28;6.70;99.90
16785;DHT22;8509;52.178;5.404;2024-03-17T06:05:54;6.70;99.90
16785;DHT22;8509;52.178;5.404;2024-03-17T06:08:20;6.70;99.90
16785;DHT22;8509;52.178;5.404;2024-03-17T06:10:47;6.70;99.90
16785;DHT22;8509;52.178;5.404;2024-03-17T06:13:14;6.70;99.90
16785;DHT22;8509;52.178;5.404;2024-03-17T06:15:43;6.90;99.90
16785;DHT22;8509;52.178;5.404;2024-03-17T06:18:15;6.90;99.90
16785;DHT22;8509;52.178;5.404;2024-03-17T06:20:47;6.90;99.90
16785;DHT22;8509;52.178;5.404;2024-03-17T06:23:15;6.90;99.90
16785;DHT22;8509;52.178;5.404;2024-03-17T06:25:45;7.00;99.90
16785;DHT22;8509;52.178;5.404;2024-03-17T06:28:31;7.00;99.90
16785;DHT22;8509;52.178;5.404;2024-03-17T06:31:17;6.90;99.90
16785;DHT22;8509;52.178;5.404;2024-03-17T06:33:44;7.10;99.90
16785;DHT22;8509;52.178;5.404;2024-03-17T06:36:10;7.20;99.90
16785;DHT22;8509;52.178;5.404;2024-03-17T06:38:52;7.30;99.90
16785;DHT22;8509;52.178;5.404;2024-03-17T06:41:22;7.50;99.90
16785;DHT22;8509;52.178;5.404;2024-03-17T06:43:50;7.50;99.90
16785;DHT22;8509;52.178;5.404;2024-03-17T06:46:20;7.70;99.90
16785;DHT22;8509;52.178;5.404;2024-03-17T06:48:48;7.70;99.90
16785;DHT22;8509;52.178;5.404;2024-03-17T06:51:13;7.70;99.90
16785;DHT22;8509;52.178;5.404;2024-03-17T06:53:39;7.70;99.90
16785;DHT22;8509;52.178;5.404;2024-03-17T06:56:05;7.80;99.90
16785;DHT22;8509;52.178;5.404;2024-03-17T06:58:32;7.80;99.90
16785;DHT22;8509;52.178;5.404;2024-03-17T07:01:00;7.80;99.90
16785;DHT22;8509;52.178;5.404;2024-03-17T07:03:30;7.90;99.90
16785;DHT22;8509;52.178;5.404;2024-03-17T07:05:58;8.00;99.90
16785;DHT22;8509;52.178;5.404;2024-03-17T07:08:24;8.10;99.90
16785;DHT22;8509;52.178;5.404;2024-03-17T07:10:58;8.20;99.90
16785;DHT22;8509;52.178;5.404;2024-03-17T07:13:25;8.20;99.90
16785;DHT22;8509;52.178;5.404;2024-03-17T07:15:51;8.30;99.90
16785;DHT22;8509;52.178;5.404;2024-03-17T07:18:20;8.40;99.90
16785;DHT22;8509;52.178;5.404;2024-03-17T07:20:46;8.50;99.90
16785;DHT22;8509;52.178;5.404;2024-03-17T07:23:14;8.60;99.90
16785;DHT22;8509;52.178;5.404;2024-03-17T07:25:41;8.70;99.90
16785;DHT22;8509;52.178;5.404;2024-03-17T07:28:09;8.80;99.90
16785;DHT22;8509;52.178;5.404;2024-03-17T07:30:36;8.90;99.90
16785;DHT22;8509;52.178;5.404;2024-03-17T07:33:01;8.90;99.90
16785;DHT22;8509;52.178;5.404;2024-03-17T07:35:27;9.20;99.90
16785;DHT22;8509;52.178;5.404;2024-03-17T07:37:53;9.40;99.90
16785;DHT22;8509;52.178;5.404;2024-03-17T07:40:19;9.60;99.90
16785;DHT22;8509;52.178;5.404;2024-03-17T07:42:44;9.70;99.90
16785;DHT22;8509;52.178;5.404;2024-03-17T07:45:10;9.90;99.90
16785;DHT22;8509;52.178;5.404;2024-03-17T07:47:37;10.00;99.90
16785;DHT22;8509;52.178;5.404;2024-03-17T07:50:05;10.20;99.90
16785;DHT22;8509;52.178;5.404;2024-03-17T07:52:34;10.40;99.90
16785;DHT22;8509;52.178;5.404;2024-03-17T07:55:00;10.40;99.90
16785;DHT22;8509;52.178;5.404;2024-03-17T07:57:29;10.50;99.90
16785;DHT22;8509;52.178;5.404;2024-03-17T07:59:54;10.50;99.90
16785;DHT22;8509;52.178;5.404;2024-03-17T08:02:20;10.50;99.90
16785;DHT22;8509;52.178;5.404;2024-03-17T08:04:46;10.60;99.90
16785;DHT22;8509;52.178;5.404;2024-03-17T08:07:12;10.70;99.90
16785;DHT22;8509;52.178;5.404;2024-03-17T08:09:41;10.70;99.90
16785;DHT22;8509;52.178;5.404;2024-03-17T08:12:07;10.80;99.90
16785;DHT22;8509;52.178;5.404;2024-03-17T08:14:33;11.00;99.90
16785;DHT22;8509;52.178;5.404;2024-03-17T08:16:59;10.90;99.90
16785;DHT22;8509;52.178;5.404;2024-03-17T08:19:25;10.90;99.90
16785;DHT22;8509;52.178;5.404;2024-03-17T08:21:53;11.00;99.90
16785;DHT22;8509;52.178;5.404;2024-03-17T08:24:19;10.90;99.90
16785;DHT22;8509;52.178;5.404;2024-03-17T08:26:47;11.00;99.90
16785;DHT22;8509;52.178;5.404;2024-03-17T08:29:32;11.00;99.90
16785;DHT22;8509;52.178;5.404;2024-03-17T08:32:03;10.90;99.90
16785;DHT22;8509;52.178;5.404;2024-03-17T08:34:30;10.80;99.90
16785;DHT22;8509;52.178;5.404;2024-03-17T08:36:55;10.70;99.90
16785;DHT22;8509;52.178;5.404;2024-03-17T08:39:22;10.80;99.90
16785;DHT22;8509;52.178;5.404;2024-03-17T08:41:48;10.70;99.90
16785;DHT22;8509;52.178;5.404;2024-03-17T08:44:14;10.70;99.90
16785;DHT22;8509;52.178;5.404;2024-03-17T08:46:39;10.70;99.90
16785;DHT22;8509;52.178;5.404;2024-03-17T08:49:07;10.60;99.90
16785;DHT22;8509;52.178;5.404;2024-03-17T08:51:56;10.70;99.90
16785;DHT22;8509;52.178;5.404;2024-03-17T08:54:25;10.80;99.90
16785;DHT22;8509;52.178;5.404;2024-03-17T08:56:51;10.90;99.90
16785;DHT22;8509;52.178;5.404;2024-03-17T08:59:16;11.20;99.90
16785;DHT22;8509;52.178;5.404;2024-03-17T09:01:45;11.30;99.90
16785;DHT22;8509;52.178;5.404;2024-03-17T09:04:11;11.40;99.90
16785;DHT22;8509;52.178;5.404;2024-03-17T09:06:38;11.60;99.90
16785;DHT22;8509;52.178;5.404;2024-03-17T09:09:05;11.80;99.90
16785;DHT22;8509;52.178;5.404;2024-03-17T09:11:31;11.90;99.90
16785;DHT22;8509;52.178;5.404;2024-03-17T09:13:57;11.70;99.90
16785;DHT22;8509;52.178;5.404;2024-03-17T09:16:24;11.60;99.90
16785;DHT22;8509;52.178;5.404;2024-03-17T09:18:51;11.80;99.90
16785;DHT22;8509;52.178;5.404;2024-03-17T09:21:17;11.90;99.90
16785;DHT22;8509;52.178;5.404;2024-03-17T09:23:43;12.00;99.90
16785;DHT22;8509;52.178;5.404;2024-03-17T09:26:10;12.00;99.90
16785;DHT22;8509;52.178;5.404;2024-03-17T09:28:41;12.00;99.90
16785;DHT22;8509;52.178;5.404;2024-03-17T09:31:06;12.10;99.90
16785;DHT22;8509;52.178;5.404;2024-03-17T09:33:33;12.00;99.90
16785;DHT22;8509;52.178;5.404;2024-03-17T09:36:04;12.00;99.90
16785;DHT22;8509;52.178;5.404;2024-03-17T09:38:32;12.10;99.90
16785;DHT22;8509;52.178;5.404;2024-03-17T09:40:58;12.10;99.90
16785;DHT22;8509;52.178;5.404;2024-03-17T09:43:27;12.10;99.90
16785;DHT22;8509;52.178;5.404;2024-03-17T09:45:53;12.10;99.90
16785;DHT22;8509;52.178;5.404;2024-03-17T09:48:26;12.10;99.90
16785;DHT22;8509;52.178;5.404;2024-03-17T09:50:59;12.20;99.90
16785;DHT22;8509;52.178;5.404;2024-03-17T09:53:34;12.20;99.90
16785;DHT22;8509;52.178;5.404;2024-03-17T09:56:09;12.20;99.90
16785;DHT22;8509;52.178;5.404;2024-03-17T09:58:36;12.30;99.90
16785;DHT22;8509;52.178;5.404;2024-03-17T10:01:02;12.30;99.90
16785;DHT22;8509;52.178;5.404;2024-03-17T10:06:45;12.60;99.90
16785;DHT22;8509;52.178;5.404;2024-03-17T10:09:15;12.70;99.90
16785;DHT22;8509;52.178;5.404;2024-03-17T10:11:49;12.80;99.90
16785;DHT22;8509;52.178;5.404;2024-03-17T10:14:17;12.90;99.90
16785;DHT22;8509;52.178;5.404;2024-03-17T10:16:43;13.10;99.90
16785;DHT22;8509;52.178;5.404;2024-03-17T10:19:24;13.20;99.90
16785;DHT22;8509;52.178;5.404;2024-03-17T10:21:59;13.20;99.90
16785;DHT22;8509;52.178;5.404;2024-03-17T10:24:29;13.20;99.90
16785;DHT22;8509;52.178;5.404;2024-03-17T10:26:56;13.20;99.90
16785;DHT22;8509;52.178;5.404;2024-03-17T10:29:35;13.30;99.90
16785;DHT22;8509;52.178;5.404;2024-03-17T10:32:23;13.50;99.90
16785;DHT22;8509;52.178;5.404;2024-03-17T10:34:58;13.70;99.90
16785;DHT22;8509;52.178;5.404;2024-03-17T10:37:27;13.80;99.90
16785;DHT22;8509;52.178;5.404;2024-03-17T10:39:54;13.80;99.90
16785;DHT22;8509;52.178;5.404;2024-03-17T10:42:28;13.80;99.90
16785;DHT22;8509;52.178;5.404;2024-03-17T10:47:30;13.90;99.90
16785;DHT22;8509;52.178;5.404;2024-03-17T10:50:00;14.10;99.90
16785;DHT22;8509;52.178;5.404;2024-03-17T10:52:33;14.30;99.90
16785;DHT22;8509;52.178;5.404;2024-03-17T10:55:03;14.40;99.90
16785;DHT22;8509;52.178;5.404;2024-03-17T11:00:06;15.10;99.90
16785;DHT22;8509;52.178;5.404;2024-03-17T11:02:35;15.30;99.90
16785;DHT22;8509;52.178;5.404;2024-03-17T11:05:03;15.40;99.90
16785;DHT22;8509;52.178;5.404;2024-03-17T11:07:30;15.50;99.90
16785;DHT22;8509;52.178;5.404;2024-03-17T11:09:59;15.80;99.90
16785;DHT22;8509;52.178;5.404;2024-03-17T11:17:54;16.10;99.90
16785;DHT22;8509;52.178;5.404;2024-03-17T11:20:24;16.00;99.90
16785;DHT22;8509;52.178;5.404;2024-03-17T11:22:53;16.10;99.90
16785;DHT22;8509;52.178;5.404;2024-03-17T11:28:00;16.30;99.90
16785;DHT22;8509;52.178;5.404;2024-03-17T11:41:45;16.50;99.90
16785;DHT22;8509;52.178;5.404;2024-03-17T11:44:33;16.30;99.90
16785;DHT22;8509;52.178;5.404;2024-03-17T11:47:03;16.20;99.90
16785;DHT22;8509;52.178;5.404;2024-03-17T11:49:31;15.90;99.90
16785;DHT22;8509;52.178;5.404;2024-03-17T11:51:59;15.70;99.90
16785;DHT22;8509;52.178;5.404;2024-03-17T11:54:30;15.40;99.90
16785;DHT22;8509;52.178;5.404;2024-03-17T11:57:01;15.10;99.90
16785;DHT22;8509;52.178;5.404;2024-03-17T11:59:27;14.80;99.90
16785;DHT22;8509;52.178;5.404;2024-03-17T12:01:55;14.80;99.90
16785;DHT22;8509;52.178;5.404;2024-03-17T12:04:21;14.70;99.90
16785;DHT22;8509;52.178;5.404;2024-03-17T12:06:57;14.70;99.90
16785;DHT22;8509;52.178;5.404;2024-03-17T12:12:10;14.60;99.90
16785;DHT22;8509;52.178;5.404;2024-03-17T12:14:37;14.50;99.90
16785;DHT22;8509;52.178;5.404;2024-03-17T12:17:06;14.40;99.90
16785;DHT22;8509;52.178;5.404;2024-03-17T12:19:33;14.40;99.90
16785;DHT22;8509;52.178;5.404;2024-03-17T12:21:59;14.40;99.90
16785;DHT22;8509;52.178;5.404;2024-03-17T12:24:30;14.50;99.90
16785;DHT22;8509;52.178;5.404;2024-03-17T12:26:57;14.60;99.90
16785;DHT22;8509;52.178;5.404;2024-03-17T12:29:27;14.60;99.90
16785;DHT22;8509;52.178;5.404;2024-03-17T12:31:56;14.80;99.90
16785;DHT22;8509;52.178;5.404;2024-03-17T12:34:25;14.80;99.90
16785;DHT22;8509;52.178;5.404;2024-03-17T12:36:53;14.90;99.90
16785;DHT22;8509;52.178;5.404;2024-03-17T12:39:23;15.10;99.90
16785;DHT22;8509;52.178;5.404;2024-03-17T12:42:01;15.30;99.90
16785;DHT22;8509;52.178;5.404;2024-03-17T12:44:30;15.30;99.90
16785;DHT22;8509;52.178;5.404;2024-03-17T12:47:03;15.20;99.90
16785;DHT22;8509;52.178;5.404;2024-03-17T12:49:34;15.00;99.90
16785;DHT22;8509;52.178;5.404;2024-03-17T12:52:14;15.10;99.90
16785;DHT22;8509;52.178;5.404;2024-03-17T12:54:42;14.90;99.90
16785;DHT22;8509;52.178;5.404;2024-03-17T12:57:20;14.80;99.90
16785;DHT22;8509;52.178;5.404;2024-03-17T13:00:22;14.80;99.90
16785;DHT22;8509;52.178;5.404;2024-03-17T13:03:07;14.70;99.90
16785;DHT22;8509;52.178;5.404;2024-03-17T13:05:36;14.80;99.90
16785;DHT22;8509;52.178;5.404;2024-03-17T13:08:02;14.80;99.90
16785;DHT22;8509;52.178;5.404;2024-03-17T13:10:31;14.80;99.90
16785;DHT22;8509;52.178;5.404;2024-03-17T13:13:08;14.90;99.90
16785;DHT22;8509;52.178;5.404;2024-03-17T13:15:35;14.80;99.90
16785;DHT22;8509;52.178;5.404;2024-03-17T13:18:05;14.70;99.90
16785;DHT22;8509;52.178;5.404;2024-03-17T13:20:40;14.80;99.90
16785;DHT22;8509;52.178;5.404;2024-03-17T13:23:13;14.70;99.90
16785;DHT22;8509;52.178;5.404;2024-03-17T13:25:45;14.70;99.90
16785;DHT22;8509;52.178;5.404;2024-03-17T13:28:14;14.80;99.90
16785;DHT22;8509;52.178;5.404;2024-03-17T13:30:42;14.80;99.90
16785;DHT22;8509;52.178;5.404;2024-03-17T13:33:11;14.80;99.90
16785;DHT22;8509;52.178;5.404;2024-03-17T13:35:46;15.00;99.90
16785;DHT22;8509;52.178;5.404;2024-03-17T13:38:17;14.80;99.90
16785;DHT22;8509;52.178;5.404;2024-03-17T13:40:51;14.80;99.90
16785;DHT22;8509;52.178;5.404;2024-03-17T13:43:16;14.80;99.90
16785;DHT22;8509;52.178;5.404;2024-03-17T13:45:42;15.00;99.90
16785;DHT22;8509;52.178;5.404;2024-03-17T13:48:09;15.00;99.90
16785;DHT22;8509;52.178;5.404;2024-03-17T13:50:39;15.00;99.90
16785;DHT22;8509;52.178;5.404;2024-03-17T13:53:06;14.90;99.90
16785;DHT22;8509;52.178;5.404;2024-03-17T13:55:32;14.90;99.90
16785;DHT22;8509;52.178;5.404;2024-03-17T13:57:58;14.90;99.90
16785;DHT22;8509;52.178;5.404;2024-03-17T14:00:28;14.90;99.90
16785;DHT22;8509;52.178;5.404;2024-03-17T14:02:55;15.00;99.90
16785;DHT22;8509;52.178;5.404;2024-03-17T14:05:25;15.00;99.90
16785;DHT22;8509;52.178;5.404;2024-03-17T14:07:55;15.00;99.90
16785;DHT22;8509;52.178;5.404;2024-03-17T14:10:24;15.10;99.90
16785;DHT22;8509;52.178;5.404;2024-03-17T14:12:50;15.00;99.90
16785;DHT22;8509;52.178;5.404;2024-03-17T14:15:16;15.00;99.90
16785;DHT22;8509;52.178;5.404;2024-03-17T14:17:44;14.90;99.90
16785;DHT22;8509;52.178;5.404;2024-03-17T14:20:11;14.80;99.90
16785;DHT22;8509;52.178;5.404;2024-03-17T14:22:43;14.80;99.90
16785;DHT22;8509;52.178;5.404;2024-03-17T14:25:10;14.90;99.90
16785;DHT22;8509;52.178;5.404;2024-03-17T14:27:38;15.10;99.90
16785;DHT22;8509;52.178;5.404;2024-03-17T14:30:05;15.20;99.90
16785;DHT22;8509;52.178;5.404;2024-03-17T14:32:31;15.40;99.90
16785;DHT22;8509;52.178;5.404;2024-03-17T14:35:16;15.40;99.90
16785;DHT22;8509;52.178;5.404;2024-03-17T14:38:04;15.40;99.90
16785;DHT22;8509;52.178;5.404;2024-03-17T14:40:31;15.40;99.90
16785;DHT22;8509;52.178;5.404;2024-03-17T14:42:59;15.40;99.90
16785;DHT22;8509;52.178;5.404;2024-03-17T14:45:28;15.40;99.90
16785;DHT22;8509;52.178;5.404;2024-03-17T14:48:07;15.40;99.90
16785;DHT22;8509;52.178;5.404;2024-03-17T14:50:37;15.50;99.90
16785;DHT22;8509;52.178;5.404;2024-03-17T14:53:16;15.60;99.90
16785;DHT22;8509;52.178;5.404;2024-03-17T14:55:43;15.50;99.90
16785;DHT22;8509;52.178;5.404;2024-03-17T14:58:12;15.60;99.90
16785;DHT22;8509;52.178;5.404;2024-03-17T15:00:40;15.60;99.90
16785;DHT22;8509;52.178;5.404;2024-03-17T15:03:09;15.30;99.90
16785;DHT22;8509;52.178;5.404;2024-03-17T15:05:38;15.20;99.90
16785;DHT22;8509;52.178;5.404;2024-03-17T15:08:07;15.30;99.90
16785;DHT22;8509;52.178;5.404;2024-03-17T15:10:35;15.20;99.90
16785;DHT22;8509;52.178;5.404;2024-03-17T15:13:01;15.30;99.90
16785;DHT22;8509;52.178;5.404;2024-03-17T15:15:30;15.20;99.90
16785;DHT22;8509;52.178;5.404;2024-03-17T15:17:56;15.30;99.90
16785;DHT22;8509;52.178;5.404;2024-03-17T15:20:27;14.90;99.90
16785;DHT22;8509;52.178;5.404;2024-03-17T15:23:03;15.00;99.90
16785;DHT22;8509;52.178;5.404;2024-03-17T15:25:43;14.90;99.90
16785;DHT22;8509;52.178;5.404;2024-03-17T15:28:11;14.80;99.90
16785;DHT22;8509;52.178;5.404;2024-03-17T15:30:41;14.80;99.90
16785;DHT22;8509;52.178;5.404;2024-03-17T15:33:14;14.70;99.90
16785;DHT22;8509;52.178;5.404;2024-03-17T15:36:00;14.70;99.90
16785;DHT22;8509;52.178;5.404;2024-03-17T15:38:28;14.70;99.90
16785;DHT22;8509;52.178;5.404;2024-03-17T15:40:57;14.70;99.90
16785;DHT22;8509;52.178;5.404;2024-03-17T15:43:23;14.50;99.90
16785;DHT22;8509;52.178;5.404;2024-03-17T15:45:51;14.50;99.90
16785;DHT22;8509;52.178;5.404;2024-03-17T15:48:20;14.50;99.90
16785;DHT22;8509;52.178;5.404;2024-03-17T15:50:56;14.60;99.90
16785;DHT22;8509;52.178;5.404;2024-03-17T15:53:22;14.40;99.90
16785;DHT22;8509;52.178;5.404;2024-03-17T15:56:04;14.30;99.90
16785;DHT22;8509;52.178;5.404;2024-03-17T15:58:33;14.40;99.90
16785;DHT22;8509;52.178;5.404;2024-03-17T16:01:05;14.40;99.90
16785;DHT22;8509;52.178;5.404;2024-03-17T16:03:34;14.30;99.90
16785;DHT22;8509;52.178;5.404;2024-03-17T16:06:07;14.40;99.90
16785;DHT22;8509;52.178;5.404;2024-03-17T16:08:43;14.30;99.90
16785;DHT22;8509;52.178;5.404;2024-03-17T16:11:16;14.20;99.90
16785;DHT22;8509;52.178;5.404;2024-03-17T16:13:46;14.10;99.90
16785;DHT22;8509;52.178;5.404;2024-03-17T16:16:17;14.10;99.90
16785;DHT22;8509;52.178;5.404;2024-03-17T16:18:45;14.10;99.90
16785;DHT22;8509;52.178;5.404;2024-03-17T16:21:19;14.20;99.90
16785;DHT22;8509;52.178;5.404;2024-03-17T16:23:49;14.00;99.90
16785;DHT22;8509;52.178;5.404;2024-03-17T16:26:16;14.00;99.90
16785;DHT22;8509;52.178;5.404;2024-03-17T16:28:42;13.90;99.90
16785;DHT22;8509;52.178;5.404;2024-03-17T16:31:09;13.90;99.90
16785;DHT22;8509;52.178;5.404;2024-03-17T16:33:37;13.90;99.90